sensor_id;sensor_type;location;lat;lon;timestamp;temperature;humidity
65536;DHT22;52145;49.342;9.116;2022-09-09T00:00:47;14.50;99.90
65536;DHT22;52145;49.342;9.116;2022-09-09T00:03:17;14.30;99.90
65536;DHT22;52145;49.342;9.116;2022-09-09T00:06:02;14.30;99.90
65536;DHT22;52145;49.342;9.116;2022-09-09T00:08:45;14.40;99.90
65536;DHT22;52145;49.342;9.116;2022-09-09T00:11:23;14.30;99.90
65536;DHT22;52145;49.342;9.116;2022-09-09T00:13:52;14.40;99.90
65536;DHT22;52145;49.342;9.116;2022-09-09T00:16:24;14.40;99.90
65536;DHT22;52145;49.342;9.116;2022-09-09T00:19:16;14.50;99.90
65536;DHT22;52145;49.342;9.116;2022-09-09T00:22:16;14.40;99.90
65536;DHT22;52145;49.342;9.116;2022-09-09T00:24:46;14.40;99.90
65536;DHT22;52145;49.342;9.116;2022-09-09T00:27:27;14.50;99.90
65536;DHT22;52145;49.342;9.116;2022-09-09T00:29:59;14.40;99.90
65536;DHT22;52145;49.342;9.116;2022-09-09T00:32:29;14.50;99.90
65536;DHT22;52145;49.342;9.116;2022-09-09T00:35:01;14.40;99.90
65536;DHT22;52145;49.342;9.116;2022-09-09T00:37:28;14.50;99.90
65536;DHT22;52145;49.342;9.116;2022-09-09T00:39:59;14.50;99.90
65536;DHT22;52145;49.342;9.116;2022-09-09T00:42:42;14.60;99.90
65536;DHT22;52145;49.342;9.116;2022-09-09T00:47:52;14.40;99.90
65536;DHT22;52145;49.342;9.116;2022-09-09T00:53:56;14.30;99.90
65536;DHT22;52145;49.342;9.116;2022-09-09T00:56:36;14.30;99.90
65536;DHT22;52145;49.342;9.116;2022-09-09T01:01:36;14.50;99.90
65536;DHT22;52145;49.342;9.116;2022-09-09T01:04:07;14.60;99.90
65536;DHT22;52145;49.342;9.116;2022-09-09T01:06:36;14.60;99.90
65536;DHT22;52145;49.342;9.116;2022-09-09T01:09:22;14.60;99.90
65536;DHT22;52145;49.342;9.116;2022-09-09T01:15:15;14.40;99.90
65536;DHT22;52145;49.342;9.116;2022-09-09T01:18:26;14.30;99.90
65536;DHT22;52145;49.342;9.116;2022-09-09T01:21:05;14.30;99.90
65536;DHT22;52145;49.342;9.116;2022-09-09T01:23:52;14.40;99.90
65536;DHT22;52145;49.342;9.116;2022-09-09T01:28:53;14.30;99.90
65536;DHT22;52145;49.342;9.116;2022-09-09T01:31:32;14.30;99.90
65536;DHT22;52145;49.342;9.116;2022-09-09T01:33:58;14.30;99.90
65536;DHT22;52145;49.342;9.116;2022-09-09T01:39:08;14.20;99.90
65536;DHT22;52145;49.342;9.116;2022-09-09T01:41:34;14.40;99.90
65536;DHT22;52145;49.342;9.116;2022-09-09T01:43:59;14.30;99.90
65536;DHT22;52145;49.342;9.116;2022-09-09T01:46:25;14.30;99.90
65536;DHT22;52145;49.342;9.116;2022-09-09T01:48:53;14.30;99.90
65536;DHT22;52145;49.342;9.116;2022-09-09T01:51:19;14.30;99.90
65536;DHT22;52145;49.342;9.116;2022-09-09T01:53:45;14.30;99.90
65536;DHT22;52145;49.342;9.116;2022-09-09T02:04:43;14.50;99.90
65536;DHT22;52145;49.342;9.116;2022-09-09T02:07:39;14.50;99.90
65536;DHT22;52145;49.342;9.116;2022-09-09T02:10:20;14.40;99.90
65536;DHT22;52145;49.342;9.116;2022-09-09T02:12:59;14.50;99.90
65536;DHT22;52145;49.342;9.116;2022-09-09T02:18:01;14.50;99.90
65536;DHT22;52145;49.342;9.116;2022-09-09T02:20:31;14.50;99.90
65536;DHT22;52145;49.342;9.116;2022-09-09T02:22:59;14.50;99.90
65536;DHT22;52145;49.342;9.116;2022-09-09T02:25:27;14.40;99.90
65536;DHT22;52145;49.342;9.116;2022-09-09T02:27:53;14.50;99.90
65536;DHT22;52145;49.342;9.116;2022-09-09T02:30:20;14.40;99.90
65536;DHT22;52145;49.342;9.116;2022-09-09T02:32:47;14.40;99.90
65536;DHT22;52145;49.342;9.116;2022-09-09T02:35:16;14.40;99.90
65536;DHT22;52145;49.342;9.116;2022-09-09T02:37:44;14.50;99.90
65536;DHT22;52145;49.342;9.116;2022-09-09T02:40:12;14.30;99.90
65536;DHT22;52145;49.342;9.116;2022-09-09T02:42:45;14.30;99.90
65536;DHT22;52145;49.342;9.116;2022-09-09T02:45:14;14.30;99.90
65536;DHT22;52145;49.342;9.116;2022-09-09T02:51:12;14.30;99.90
65536;DHT22;52145;49.342;9.116;2022-09-09T02:54:04;14.30;99.90
65536;DHT22;52145;49.342;9.116;2022-09-09T02:56:39;14.40;99.90
65536;DHT22;52145;49.342;9.116;2022-09-09T02:59:06;14.40;99.90
65536;DHT22;52145;49.342;9.116;2022-09-09T03:01:32;14.40;99.90
65536;DHT22;52145;49.342;9.116;2022-09-09T03:03:58;14.30;99.90
65536;DHT22;52145;49.342;9.116;2022-09-09T03:06:23;14.40;99.90
65536;DHT22;52145;49.342;9.116;2022-09-09T03:08:49;14.40;99.90
65536;DHT22;52145;49.342;9.116;2022-09-09T03:11:16;14.30;99.90
65536;DHT22;52145;49.342;9.116;2022-09-09T03:13:42;14.30;99.90
65536;DHT22;52145;49.342;9.116;2022-09-09T03:16:07;14.30;99.90
65536;DHT22;52145;49.342;9.116;2022-09-09T03:18:33;14.20;99.90
65536;DHT22;52145;49.342;9.116;2022-09-09T03:20:59;14.10;99.90
65536;DHT22;52145;49.342;9.116;2022-09-09T03:23:25;14.20;99.90
65536;DHT22;52145;49.342;9.116;2022-09-09T03:25:50;14.10;99.90
65536;DHT22;52145;49.342;9.116;2022-09-09T03:28:17;14.00;99.90
65536;DHT22;52145;49.342;9.116;2022-09-09T03:30:43;14.10;99.90
65536;DHT22;52145;49.342;9.116;2022-09-09T03:33:08;14.20;99.90
65536;DHT22;52145;49.342;9.116;2022-09-09T03:35:34;14.20;99.90
65536;DHT22;52145;49.342;9.116;2022-09-09T03:37:59;14.10;99.90
65536;DHT22;52145;49.342;9.116;2022-09-09T03:40:26;14.20;99.90
65536;DHT22;52145;49.342;9.116;2022-09-09T03:42:51;14.20;99.90
65536;DHT22;52145;49.342;9.116;2022-09-09T03:45:17;14.30;99.90
65536;DHT22;52145;49.342;9.116;2022-09-09T03:47:43;14.30;99.90
65536;DHT22;52145;49.342;9.116;2022-09-09T03:50:09;14.40;99.90
65536;DHT22;52145;49.342;9.116;2022-09-09T03:52:37;14.30;99.90
65536;DHT22;52145;49.342;9.116;2022-09-09T03:55:04;14.20;99.90
65536;DHT22;52145;49.342;9.116;2022-09-09T03:57:29;14.30;99.90
65536;DHT22;52145;49.342;9.116;2022-09-09T03:59:55;14.40;99.90
65536;DHT22;52145;49.342;9.116;2022-09-09T04:02:21;14.30;99.90
65536;DHT22;52145;49.342;9.116;2022-09-09T04:04:46;14.30;99.90
65536;DHT22;52145;49.342;9.116;2022-09-09T04:07:12;14.30;99.90
65536;DHT22;52145;49.342;9.116;2022-09-09T04:09:38;14.40;99.90
65536;DHT22;52145;49.342;9.116;2022-09-09T04:12:04;14.40;99.90
65536;DHT22;52145;49.342;9.116;2022-09-09T04:14:30;14.30;99.90
65536;DHT22;52145;49.342;9.116;2022-09-09T04:16:55;14.40;99.90
65536;DHT22;52145;49.342;9.116;2022-09-09T04:19:22;14.30;99.90
65536;DHT22;52145;49.342;9.116;2022-09-09T04:21:48;14.30;99.90
65536;DHT22;52145;49.342;9.116;2022-09-09T04:24:15;14.40;99.90
65536;DHT22;52145;49.342;9.116;2022-09-09T04:26:41;14.40;99.90
65536;DHT22;52145;49.342;9.116;2022-09-09T04:29:07;14.40;99.90
65536;DHT22;52145;49.342;9.116;2022-09-09T04:31:33;14.30;99.90
65536;DHT22;52145;49.342;9.116;2022-09-09T04:33:59;14.40;99.90
65536;DHT22;52145;49.342;9.116;2022-09-09T04:36:30;14.30;99.90
65536;DHT22;52145;49.342;9.116;2022-09-09T04:38:57;14.40;99.90
65536;DHT22;52145;49.342;9.116;2022-09-09T04:41:22;14.30;99.90
65536;DHT22;52145;49.342;9.116;2022-09-09T04:43:49;14.40;99.90
65536;DHT22;52145;49.342;9.116;2022-09-09T04:46:14;14.30;99.90
65536;DHT22;52145;49.342;9.116;2022-09-09T04:48:42;14.10;99.90
65536;DHT22;52145;49.342;9.116;2022-09-09T04:51:12;14.10;99.90
65536;DHT22;52145;49.342;9.116;2022-09-09T04:53:37;14.10;99.90
65536;DHT22;52145;49.342;9.116;2022-09-09T04:56:07;14.30;99.90
65536;DHT22;52145;49.342;9.116;2022-09-09T04:58:33;14.30;99.90
65536;DHT22;52145;49.342;9.116;2022-09-09T05:01:06;14.40;99.90
65536;DHT22;52145;49.342;9.116;2022-09-09T05:03:33;14.40;99.90
65536;DHT22;52145;49.342;9.116;2022-09-09T05:06:03;14.40;99.90
65536;DHT22;52145;49.342;9.116;2022-09-09T05:08:29;14.50;99.90
65536;DHT22;52145;49.342;9.116;2022-09-09T05:10:55;14.40;99.90
65536;DHT22;52145;49.342;9.116;2022-09-09T05:13:20;14.40;99.90
65536;DHT22;52145;49.342;9.116;2022-09-09T05:15:54;14.40;99.90
65536;DHT22;52145;49.342;9.116;2022-09-09T05:18:20;14.40;99.90
65536;DHT22;52145;49.342;9.116;2022-09-09T05:20:48;14.50;99.90
65536;DHT22;52145;49.342;9.116;2022-09-09T05:23:13;14.60;99.90
65536;DHT22;52145;49.342;9.116;2022-09-09T05:25:40;14.60;99.90
65536;DHT22;52145;49.342;9.116;2022-09-09T05:28:09;14.50;99.90
65536;DHT22;52145;49.342;9.116;2022-09-09T05:30:34;14.50;99.90
65536;DHT22;52145;49.342;9.116;2022-09-09T05:33:00;14.50;99.90
65536;DHT22;52145;49.342;9.116;2022-09-09T05:35:26;14.60;99.90
65536;DHT22;52145;49.342;9.116;2022-09-09T05:37:52;14.70;99.90
65536;DHT22;52145;49.342;9.116;2022-09-09T05:40:17;14.70;99.90
65536;DHT22;52145;49.342;9.116;2022-09-09T05:42:43;14.70;99.90
65536;DHT22;52145;49.342;9.116;2022-09-09T05:45:09;14.70;99.90
65536;DHT22;52145;49.342;9.116;2022-09-09T05:47:35;14.80;99.90
65536;DHT22;52145;49.342;9.116;2022-09-09T05:50:03;14.80;99.90
65536;DHT22;52145;49.342;9.116;2022-09-09T05:52:28;14.80;99.90
65536;DHT22;52145;49.342;9.116;2022-09-09T05:54:54;14.90;99.90
65536;DHT22;52145;49.342;9.116;2022-09-09T05:57:20;15.10;99.90
65536;DHT22;52145;49.342;9.116;2022-09-09T05:59:46;15.10;99.90
65536;DHT22;52145;49.342;9.116;2022-09-09T06:02:12;15.10;99.90
65536;DHT22;52145;49.342;9.116;2022-09-09T06:04:38;15.30;99.90
65536;DHT22;52145;49.342;9.116;2022-09-09T06:07:04;15.20;99.90
65536;DHT22;52145;49.342;9.116;2022-09-09T06:09:30;15.30;99.90
65536;DHT22;52145;49.342;9.116;2022-09-09T06:11:56;15.20;99.90
65536;DHT22;52145;49.342;9.116;2022-09-09T06:14:23;15.10;99.90
65536;DHT22;52145;49.342;9.116;2022-09-09T06:16:50;15.10;99.90
65536;DHT22;52145;49.342;9.116;2022-09-09T06:19:16;15.10;99.90
65536;DHT22;52145;49.342;9.116;2022-09-09T06:21:41;15.10;99.90
65536;DHT22;52145;49.342;9.116;2022-09-09T06:24:09;15.10;99.90
65536;DHT22;52145;49.342;9.116;2022-09-09T06:26:39;15.10;99.90
65536;DHT22;52145;49.342;9.116;2022-09-09T06:29:08;15.20;99.90
65536;DHT22;52145;49.342;9.116;2022-09-09T06:31:35;15.40;99.90
65536;DHT22;52145;49.342;9.116;2022-09-09T06:34:04;15.50;99.90
65536;DHT22;52145;49.342;9.116;2022-09-09T06:36:36;15.60;99.90
65536;DHT22;52145;49.342;9.116;2022-09-09T06:39:03;15.60;99.90
65536;DHT22;52145;49.342;9.116;2022-09-09T06:41:30;15.70;99.90
65536;DHT22;52145;49.342;9.116;2022-09-09T06:43:56;15.70;99.90
65536;DHT22;52145;49.342;9.116;2022-09-09T06:46:27;15.70;99.90
65536;DHT22;52145;49.342;9.116;2022-09-09T06:48:54;15.70;99.90
65536;DHT22;52145;49.342;9.116;2022-09-09T06:51:26;15.60;99.90
65536;DHT22;52145;49.342;9.116;2022-09-09T06:53:53;15.80;99.90
65536;DHT22;52145;49.342;9.116;2022-09-09T06:58:49;16.20;99.90
65536;DHT22;52145;49.342;9.116;2022-09-09T07:01:17;16.30;99.90
65536;DHT22;52145;49.342;9.116;2022-09-09T07:03:49;16.20;99.90
65536;DHT22;52145;49.342;9.116;2022-09-09T07:06:18;16.50;99.90
65536;DHT22;52145;49.342;9.116;2022-09-09T07:08:49;16.70;99.90
65536;DHT22;52145;49.342;9.116;2022-09-09T07:11:15;16.80;99.90
65536;DHT22;52145;49.342;9.116;2022-09-09T07:13:41;16.60;99.90
65536;DHT22;52145;49.342;9.116;2022-09-09T07:16:09;16.60;99.90
65536;DHT22;52145;49.342;9.116;2022-09-09T07:18:36;16.80;99.90
65536;DHT22;52145;49.342;9.116;2022-09-09T07:21:02;16.90;99.90
65536;DHT22;52145;49.342;9.116;2022-09-09T07:23:29;16.90;99.90
65536;DHT22;52145;49.342;9.116;2022-09-09T07:25:58;17.20;99.90
65536;DHT22;52145;49.342;9.116;2022-09-09T07:28:25;17.40;99.90
65536;DHT22;52145;49.342;9.116;2022-09-09T07:30:56;17.20;99.90
65536;DHT22;52145;49.342;9.116;2022-09-09T07:33:23;17.00;99.90
65536;DHT22;52145;49.342;9.116;2022-09-09T07:35:49;17.10;99.90
65536;DHT22;52145;49.342;9.116;2022-09-09T07:38:15;16.80;99.90
65536;DHT22;52145;49.342;9.116;2022-09-09T07:40:41;17.00;99.90
65536;DHT22;52145;49.342;9.116;2022-09-09T07:43:06;16.80;99.90
65536;DHT22;52145;49.342;9.116;2022-09-09T07:45:33;16.60;99.90
65536;DHT22;52145;49.342;9.116;2022-09-09T07:47:59;16.60;99.90
65536;DHT22;52145;49.342;9.116;2022-09-09T07:50:25;16.60;99.90
65536;DHT22;52145;49.342;9.116;2022-09-09T07:52:52;16.70;99.90
65536;DHT22;52145;49.342;9.116;2022-09-09T07:55:19;16.80;99.90
65536;DHT22;52145;49.342;9.116;2022-09-09T07:57:45;17.10;99.90
65536;DHT22;52145;49.342;9.116;2022-09-09T08:00:11;17.50;99.90
65536;DHT22;52145;49.342;9.116;2022-09-09T08:02:37;17.50;99.90
65536;DHT22;52145;49.342;9.116;2022-09-09T08:05:02;17.50;99.90
65536;DHT22;52145;49.342;9.116;2022-09-09T08:07:28;17.60;99.90
65536;DHT22;52145;49.342;9.116;2022-09-09T08:09:54;17.80;99.90
65536;DHT22;52145;49.342;9.116;2022-09-09T08:12:21;17.90;99.90
65536;DHT22;52145;49.342;9.116;2022-09-09T08:14:46;17.70;99.90
65536;DHT22;52145;49.342;9.116;2022-09-09T08:17:13;17.60;99.90
65536;DHT22;52145;49.342;9.116;2022-09-09T08:19:38;17.90;99.90
65536;DHT22;52145;49.342;9.116;2022-09-09T08:22:04;17.80;99.90
65536;DHT22;52145;49.342;9.116;2022-09-09T08:24:29;18.40;99.90
65536;DHT22;52145;49.342;9.116;2022-09-09T08:26:55;18.70;99.90
65536;DHT22;52145;49.342;9.116;2022-09-09T08:29:22;19.10;99.90
65536;DHT22;52145;49.342;9.116;2022-09-09T08:31:50;19.30;99.90
65536;DHT22;52145;49.342;9.116;2022-09-09T08:34:17;19.60;99.90
65536;DHT22;52145;49.342;9.116;2022-09-09T08:36:46;19.60;99.90
65536;DHT22;52145;49.342;9.116;2022-09-09T08:39:14;19.30;99.90
65536;DHT22;52145;49.342;9.116;2022-09-09T08:52:59;19.70;99.90
65536;DHT22;52145;49.342;9.116;2022-09-09T08:55:47;20.00;99.90
65536;DHT22;52145;49.342;9.116;2022-09-09T08:58:27;20.50;99.90
65536;DHT22;52145;49.342;9.116;2022-09-09T09:09:45;20.40;99.90
65536;DHT22;52145;49.342;9.116;2022-09-09T09:12:23;20.10;99.90
65536;DHT22;52145;49.342;9.116;2022-09-09T09:14:50;19.80;99.90
65536;DHT22;52145;49.342;9.116;2022-09-09T09:17:20;20.00;99.90
65536;DHT22;52145;49.342;9.116;2022-09-09T09:19:47;20.20;99.90
65536;DHT22;52145;49.342;9.116;2022-09-09T09:22:40;20.50;99.90
65536;DHT22;52145;49.342;9.116;2022-09-09T09:30:23;20.00;99.90
65536;DHT22;52145;49.342;9.116;2022-09-09T09:32:55;20.30;99.90
65536;DHT22;52145;49.342;9.116;2022-09-09T09:35:21;19.90;99.90
65536;DHT22;52145;49.342;9.116;2022-09-09T09:37:47;19.70;99.90
65536;DHT22;52145;49.342;9.116;2022-09-09T09:40:16;19.30;99.90
65536;DHT22;52145;49.342;9.116;2022-09-09T09:42:54;19.10;99.90
65536;DHT22;52145;49.342;9.116;2022-09-09T09:45:34;18.80;99.90
65536;DHT22;52145;49.342;9.116;2022-09-09T09:48:05;18.60;99.90
65536;DHT22;52145;49.342;9.116;2022-09-09T09:50:32;18.50;99.90
65536;DHT22;52145;49.342;9.116;2022-09-09T09:53:02;18.60;99.90
65536;DHT22;52145;49.342;9.116;2022-09-09T09:55:30;18.60;99.90
65536;DHT22;52145;49.342;9.116;2022-09-09T09:58:06;18.60;99.90
65536;DHT22;52145;49.342;9.116;2022-09-09T10:00:48;18.80;99.90
65536;DHT22;52145;49.342;9.116;2022-09-09T10:03:32;19.30;99.90
65536;DHT22;52145;49.342;9.116;2022-09-09T10:06:03;20.00;99.90
65536;DHT22;52145;49.342;9.116;2022-09-09T10:08:29;20.60;99.90
65536;DHT22;52145;49.342;9.116;2022-09-09T10:17:18;21.00;99.90
65536;DHT22;52145;49.342;9.116;2022-09-09T10:20:11;21.80;99.90
65536;DHT22;52145;49.342;9.116;2022-09-09T10:22:45;22.00;99.90
65536;DHT22;52145;49.342;9.116;2022-09-09T10:25:28;21.10;99.90
65536;DHT22;52145;49.342;9.116;2022-09-09T10:28:29;21.60;99.90
65536;DHT22;52145;49.342;9.116;2022-09-09T10:31:00;21.00;99.90
65536;DHT22;52145;49.342;9.116;2022-09-09T10:33:51;21.10;99.90
65536;DHT22;52145;49.342;9.116;2022-09-09T10:36:25;21.40;99.90
65536;DHT22;52145;49.342;9.116;2022-09-09T10:39:01;21.80;99.90
65536;DHT22;52145;49.342;9.116;2022-09-09T10:44:30;22.50;99.90
65536;DHT22;52145;49.342;9.116;2022-09-09T10:50:06;22.40;99.90
65536;DHT22;52145;49.342;9.116;2022-09-09T10:53:01;22.40;99.90
65536;DHT22;52145;49.342;9.116;2022-09-09T10:55:35;22.60;99.90
65536;DHT22;52145;49.342;9.116;2022-09-09T10:58:03;22.40;99.90
65536;DHT22;52145;49.342;9.116;2022-09-09T11:00:40;22.80;99.90
65536;DHT22;52145;49.342;9.116;2022-09-09T11:03:17;23.40;99.90
65536;DHT22;52145;49.342;9.116;2022-09-09T11:05:47;22.90;99.90
65536;DHT22;52145;49.342;9.116;2022-09-09T11:08:26;22.50;99.90
65536;DHT22;52145;49.342;9.116;2022-09-09T11:10:53;21.60;99.90
65536;DHT22;52145;49.342;9.116;2022-09-09T11:18:46;22.10;99.90
65536;DHT22;52145;49.342;9.116;2022-09-09T11:21:22;22.10;99.90
65536;DHT22;52145;49.342;9.116;2022-09-09T11:23:54;22.00;99.90
65536;DHT22;52145;49.342;9.116;2022-09-09T11:26:52;21.80;99.90
65536;DHT22;52145;49.342;9.116;2022-09-09T11:40:41;24.00;99.90
65536;DHT22;52145;49.342;9.116;2022-09-09T11:43:25;24.60;99.90
65536;DHT22;52145;49.342;9.116;2022-09-09T11:45:54;24.70;99.90
65536;DHT22;52145;49.342;9.116;2022-09-09T11:53:50;24.30;99.90
65536;DHT22;52145;49.342;9.116;2022-09-09T11:56:25;23.60;99.90
65536;DHT22;52145;49.342;9.116;2022-09-09T11:59:06;24.10;99.90
65536;DHT22;52145;49.342;9.116;2022-09-09T12:01:36;23.00;99.90
65536;DHT22;52145;49.342;9.116;2022-09-09T12:09:52;23.10;99.90
65536;DHT22;52145;49.342;9.116;2022-09-09T12:12:30;23.20;99.90
65536;DHT22;52145;49.342;9.116;2022-09-09T12:17:52;24.20;99.90
65536;DHT22;52145;49.342;9.116;2022-09-09T12:20:34;23.90;99.90
65536;DHT22;52145;49.342;9.116;2022-09-09T12:28:15;25.10;99.90
65536;DHT22;52145;49.342;9.116;2022-09-09T12:31:00;24.90;99.90
65536;DHT22;52145;49.342;9.116;2022-09-09T12:33:39;25.30;99.90
65536;DHT22;52145;49.342;9.116;2022-09-09T12:36:12;25.60;99.90
65536;DHT22;52145;49.342;9.116;2022-09-09T12:38:41;25.20;99.90
65536;DHT22;52145;49.342;9.116;2022-09-09T12:41:19;26.80;99.90
65536;DHT22;52145;49.342;9.116;2022-09-09T12:43:45;25.60;99.90
65536;DHT22;52145;49.342;9.116;2022-09-09T12:46:39;27.20;99.90
65536;DHT22;52145;49.342;9.116;2022-09-09T12:49:03;24.70;99.90
65536;DHT22;52145;49.342;9.116;2022-09-09T12:51:49;23.30;99.90
65536;DHT22;52145;49.342;9.116;2022-09-09T12:54:15;23.90;99.90
65536;DHT22;52145;49.342;9.116;2022-09-09T12:56:45;24.70;99.90
65536;DHT22;52145;49.342;9.116;2022-09-09T12:59:24;24.30;99.90
65536;DHT22;52145;49.342;9.116;2022-09-09T13:01:59;22.70;99.90
65536;DHT22;52145;49.342;9.116;2022-09-09T13:04:25;24.40;99.90
65536;DHT22;52145;49.342;9.116;2022-09-09T13:06:51;24.00;99.90
65536;DHT22;52145;49.342;9.116;2022-09-09T13:09:18;22.60;99.90
65536;DHT22;52145;49.342;9.116;2022-09-09T13:11:47;23.60;99.90
65536;DHT22;52145;49.342;9.116;2022-09-09T13:14:27;23.00;99.90
65536;DHT22;52145;49.342;9.116;2022-09-09T13:16:59;22.80;99.90
65536;DHT22;52145;49.342;9.116;2022-09-09T13:19:26;22.40;99.90
65536;DHT22;52145;49.342;9.116;2022-09-09T13:21:55;22.10;99.90
65536;DHT22;52145;49.342;9.116;2022-09-09T13:24:34;21.90;99.90
65536;DHT22;52145;49.342;9.116;2022-09-09T13:27:02;22.00;99.90
65536;DHT22;52145;49.342;9.116;2022-09-09T13:29:30;22.20;99.90
65536;DHT22;52145;49.342;9.116;2022-09-09T13:32:06;21.90;99.90
65536;DHT22;52145;49.342;9.116;2022-09-09T13:34:34;22.10;99.90
65536;DHT22;52145;49.342;9.116;2022-09-09T13:37:05;21.60;99.90
65536;DHT22;52145;49.342;9.116;2022-09-09T13:39:33;21.60;99.90
65536;DHT22;52145;49.342;9.116;2022-09-09T13:42:00;21.80;99.90
65536;DHT22;52145;49.342;9.116;2022-09-09T13:44:38;21.90;99.90
65536;DHT22;52145;49.342;9.116;2022-09-09T13:47:20;21.80;99.90
65536;DHT22;52145;49.342;9.116;2022-09-09T13:49:46;21.20;99.90
65536;DHT22;52145;49.342;9.116;2022-09-09T13:52:17;20.80;99.90
65536;DHT22;52145;49.342;9.116;2022-09-09T13:54:50;21.00;99.90
65536;DHT22;52145;49.342;9.116;2022-09-09T13:57:26;20.70;99.90
65536;DHT22;52145;49.342;9.116;2022-09-09T13:59:54;20.80;99.90
65536;DHT22;52145;49.342;9.116;2022-09-09T14:02:20;20.50;99.90
65536;DHT22;52145;49.342;9.116;2022-09-09T14:07:17;19.70;99.90
65536;DHT22;52145;49.342;9.116;2022-09-09T14:09:43;19.40;99.90
65536;DHT22;52145;49.342;9.116;2022-09-09T14:12:12;19.50;99.90
65536;DHT22;52145;49.342;9.116;2022-09-09T14:14:39;18.60;99.90
65536;DHT22;52145;49.342;9.116;2022-09-09T14:17:04;18.60;99.90
65536;DHT22;52145;49.342;9.116;2022-09-09T14:19:30;17.80;99.90
65536;DHT22;52145;49.342;9.116;2022-09-09T14:21:57;16.60;99.90
65536;DHT22;52145;49.342;9.116;2022-09-09T14:24:22;16.10;99.90
65536;DHT22;52145;49.342;9.116;2022-09-09T14:26:48;16.30;99.90
65536;DHT22;52145;49.342;9.116;2022-09-09T14:29:14;16.30;99.90
65536;DHT22;52145;49.342;9.116;2022-09-09T14:31:39;18.00;99.90
65536;DHT22;52145;49.342;9.116;2022-09-09T14:34:05;19.30;99.90
65536;DHT22;52145;49.342;9.116;2022-09-09T14:36:31;20.30;99.90
65536;DHT22;52145;49.342;9.116;2022-09-09T14:38:57;21.40;99.90
65536;DHT22;52145;49.342;9.116;2022-09-09T14:41:23;23.80;99.90
65536;DHT22;52145;49.342;9.116;2022-09-09T14:43:48;24.50;99.90
65536;DHT22;52145;49.342;9.116;2022-09-09T14:46:17;22.50;99.90
65536;DHT22;52145;49.342;9.116;2022-09-09T14:48:43;20.90;99.90
65536;DHT22;52145;49.342;9.116;2022-09-09T14:51:16;21.20;99.90
65536;DHT22;52145;49.342;9.116;2022-09-09T14:53:42;21.50;99.90
65536;DHT22;52145;49.342;9.116;2022-09-09T14:56:19;24.40;99.90
65536;DHT22;52145;49.342;9.116;2022-09-09T14:58:47;26.50;99.90
65536;DHT22;52145;49.342;9.116;2022-09-09T15:01:18;22.60;99.90
65536;DHT22;52145;49.342;9.116;2022-09-09T15:03:50;22.20;99.90
65536;DHT22;52145;49.342;9.116;2022-09-09T15:06:17;22.70;99.90
65536;DHT22;52145;49.342;9.116;2022-09-09T15:08:44;23.70;99.90
65536;DHT22;52145;49.342;9.116;2022-09-09T15:11:12;26.00;99.90
65536;DHT22;52145;49.342;9.116;2022-09-09T15:13:39;24.70;99.90
65536;DHT22;52145;49.342;9.116;2022-09-09T15:16:06;26.00;98.20
65536;DHT22;52145;49.342;9.116;2022-09-09T15:18:32;28.90;95.50
65536;DHT22;52145;49.342;9.116;2022-09-09T15:20:59;28.90;92.30
65536;DHT22;52145;49.342;9.116;2022-09-09T15:23:27;26.50;93.30
65536;DHT22;52145;49.342;9.116;2022-09-09T15:25:53;23.70;98.60
65536;DHT22;52145;49.342;9.116;2022-09-09T15:28:20;22.80;99.90
65536;DHT22;52145;49.342;9.116;2022-09-09T15:30:49;22.60;99.90
65536;DHT22;52145;49.342;9.116;2022-09-09T15:33:15;21.60;99.90
65536;DHT22;52145;49.342;9.116;2022-09-09T15:35:41;21.20;99.90
65536;DHT22;52145;49.342;9.116;2022-09-09T15:38:06;21.30;99.90
65536;DHT22;52145;49.342;9.116;2022-09-09T15:40:32;21.00;99.90
65536;DHT22;52145;49.342;9.116;2022-09-09T15:42:58;20.50;99.90
65536;DHT22;52145;49.342;9.116;2022-09-09T15:45:24;21.10;99.90
65536;DHT22;52145;49.342;9.116;2022-09-09T15:47:50;24.40;99.90
65536;DHT22;52145;49.342;9.116;2022-09-09T15:50:15;25.00;99.90
65536;DHT22;52145;49.342;9.116;2022-09-09T15:52:41;23.70;99.90
65536;DHT22;52145;49.342;9.116;2022-09-09T15:55:07;21.60;99.90
65536;DHT22;52145;49.342;9.116;2022-09-09T15:57:35;20.40;99.90
65536;DHT22;52145;49.342;9.116;2022-09-09T16:00:03;20.30;99.90
65536;DHT22;52145;49.342;9.116;2022-09-09T16:02:29;20.20;99.90
65536;DHT22;52145;49.342;9.116;2022-09-09T16:04:56;19.80;99.90
65536;DHT22;52145;49.342;9.116;2022-09-09T16:07:23;19.70;99.90
65536;DHT22;52145;49.342;9.116;2022-09-09T16:09:48;20.00;99.90
65536;DHT22;52145;49.342;9.116;2022-09-09T16:12:16;19.70;99.90
65536;DHT22;52145;49.342;9.116;2022-09-09T16:14:41;19.60;99.90
65536;DHT22;52145;49.342;9.116;2022-09-09T16:17:07;19.70;99.90
65536;DHT22;52145;49.342;9.116;2022-09-09T16:19:32;19.70;99.90
65536;DHT22;52145;49.342;9.116;2022-09-09T16:22:00;19.50;99.90
65536;DHT22;52145;49.342;9.116;2022-09-09T16:24:25;19.90;99.90
65536;DHT22;52145;49.342;9.116;2022-09-09T16:26:53;19.70;99.90
65536;DHT22;52145;49.342;9.116;2022-09-09T16:29:20;19.60;99.90
65536;DHT22;52145;49.342;9.116;2022-09-09T16:31:47;19.60;99.90
65536;DHT22;52145;49.342;9.116;2022-09-09T16:34:14;19.70;99.90
65536;DHT22;52145;49.342;9.116;2022-09-09T16:36:40;19.70;99.90
65536;DHT22;52145;49.342;9.116;2022-09-09T16:39:08;20.00;99.90
65536;DHT22;52145;49.342;9.116;2022-09-09T16:41:34;20.00;99.90
65536;DHT22;52145;49.342;9.116;2022-09-09T16:44:03;19.90;99.90
65536;DHT22;52145;49.342;9.116;2022-09-09T16:46:30;19.90;99.90
65536;DHT22;52145;49.342;9.116;2022-09-09T16:48:58;19.80;99.90
65536;DHT22;52145;49.342;9.116;2022-09-09T16:51:33;19.70;99.90
65536;DHT22;52145;49.342;9.116;2022-09-09T16:54:00;19.70;99.90
65536;DHT22;52145;49.342;9.116;2022-09-09T16:56:28;19.50;99.90
65536;DHT22;52145;49.342;9.116;2022-09-09T16:58:58;19.60;99.90
65536;DHT22;52145;49.342;9.116;2022-09-09T17:01:26;19.50;99.90
65536;DHT22;52145;49.342;9.116;2022-09-09T17:03:53;19.40;99.90
65536;DHT22;52145;49.342;9.116;2022-09-09T17:06:19;19.20;99.90
65536;DHT22;52145;49.342;9.116;2022-09-09T17:08:44;19.20;99.90
65536;DHT22;52145;49.342;9.116;2022-09-09T17:11:18;19.00;99.90
65536;DHT22;52145;49.342;9.116;2022-09-09T17:13:45;19.00;99.90
65536;DHT22;52145;49.342;9.116;2022-09-09T17:16:12;18.90;99.90
65536;DHT22;52145;49.342;9.116;2022-09-09T17:18:39;18.80;99.90
65536;DHT22;52145;49.342;9.116;2022-09-09T17:21:07;18.70;99.90
65536;DHT22;52145;49.342;9.116;2022-09-09T17:23:34;18.70;99.90
65536;DHT22;52145;49.342;9.116;2022-09-09T17:26:00;18.60;99.90
65536;DHT22;52145;49.342;9.116;2022-09-09T17:28:26;18.50;99.90
65536;DHT22;52145;49.342;9.116;2022-09-09T17:30:57;18.60;99.90
65536;DHT22;52145;49.342;9.116;2022-09-09T17:33:23;18.60;99.90
65536;DHT22;52145;49.342;9.116;2022-09-09T17:35:51;18.50;99.90